sensor_id;sensor_type;location;lat;lon;timestamp;pressure;altitude;pressure_sealevel;temperature;humidity
13836;BME280;6988;52.614;13.500;2023-12-20T00:02:29;54799.66;;;-143.77;93.25
13836;BME280;6988;52.614;13.500;2023-12-20T00:07:21;54791.47;;;-143.77;93.66
13836;BME280;6988;52.614;13.500;2023-12-20T00:12:13;54805.81;;;-143.77;93.52
13836;BME280;6988;52.614;13.500;2023-12-20T00:17:05;54791.47;;;-143.77;93.59
13836;BME280;6988;52.614;13.500;2023-12-20T00:21:58;54820.19;;;-143.77;93.61
13836;BME280;6988;52.614;13.500;2023-12-20T00:26:50;54830.44;;;-143.77;93.68
13836;BME280;6988;52.614;13.500;2023-12-20T00:31:42;54768.88;;;-143.77;93.31
13836;BME280;6988;52.614;13.500;2023-12-20T00:36:34;54807.88;;;-143.77;93.66
13836;BME280;6988;52.614;13.500;2023-12-20T00:41:28;54807.88;;;-143.77;93.57
13836;BME280;6988;52.614;13.500;2023-12-20T00:46:20;54807.88;;;-143.77;93.60
13836;BME280;6988;52.614;13.500;2023-12-20T00:51:12;54781.19;;;-143.77;94.11
13836;BME280;6988;52.614;13.500;2023-12-20T00:56:04;54811.97;;;-143.77;94.03
13836;BME280;6988;52.614;13.500;2023-12-20T01:00:58;54879.69;;;-143.77;94.11
13836;BME280;6988;52.614;13.500;2023-12-20T01:05:50;54787.34;;;-143.77;94.28
13836;BME280;6988;52.614;13.500;2023-12-20T01:10:42;54752.47;;;-143.77;94.01
13836;BME280;6988;52.614;13.500;2023-12-20T01:15:34;54828.41;;;-143.77;93.64
13836;BME280;6988;52.614;13.500;2023-12-20T01:20:27;54840.72;;;-143.77;93.70
13836;BME280;6988;52.614;13.500;2023-12-20T01:25:19;54830.44;;;-143.77;93.53
13836;BME280;6988;52.614;13.500;2023-12-20T01:30:12;54807.88;;;-143.77;93.80
13836;BME280;6988;52.614;13.500;2023-12-20T01:35:05;54766.84;;;-143.77;93.80
13836;BME280;6988;52.614;13.500;2023-12-20T01:39:58;54836.59;;;-143.77;93.79
13836;BME280;6988;52.614;13.500;2023-12-20T01:44:50;54795.56;;;-143.77;94.22
13836;BME280;6988;52.614;13.500;2023-12-20T01:49:43;54828.41;;;-143.77;94.28
13836;BME280;6988;52.614;13.500;2023-12-20T01:54:36;54807.88;;;-143.77;94.29
13836;BME280;6988;52.614;13.500;2023-12-20T01:59:30;54834.56;;;-143.77;94.31
13836;BME280;6988;52.614;13.500;2023-12-20T02:04:23;54809.94;;;-143.77;94.21
13836;BME280;6988;52.614;13.500;2023-12-20T02:09:15;54811.97;;;-143.77;93.98
13836;BME280;6988;52.614;13.500;2023-12-20T02:14:08;54799.66;;;-143.77;94.02
13836;BME280;6988;52.614;13.500;2023-12-20T02:19:03;54828.41;;;-143.77;94.23
13836;BME280;6988;52.614;13.500;2023-12-20T02:23:57;54818.13;;;-143.77;93.95
13836;BME280;6988;52.614;13.500;2023-12-20T02:28:49;54857.13;;;-143.77;94.02
13836;BME280;6988;52.614;13.500;2023-12-20T02:33:41;54779.16;;;-143.77;93.40
13836;BME280;6988;52.614;13.500;2023-12-20T02:38:33;54820.19;;;-143.77;93.16
13836;BME280;6988;52.614;13.500;2023-12-20T02:43:27;54805.81;;;-143.77;93.34
13836;BME280;6988;52.614;13.500;2023-12-20T02:48:19;54781.19;;;-143.77;93.06
13836;BME280;6988;52.614;13.500;2023-12-20T02:53:11;54803.78;;;-143.77;92.62
13836;BME280;6988;52.614;13.500;2023-12-20T02:58:03;54832.50;;;-143.77;92.40
13836;BME280;6988;52.614;13.500;2023-12-20T03:02:57;54826.34;;;-143.77;91.98
13836;BME280;6988;52.614;13.500;2023-12-20T03:07:50;54855.06;;;-143.77;91.83
13836;BME280;6988;52.614;13.500;2023-12-20T03:12:42;54826.34;;;-143.77;92.08
13836;BME280;6988;52.614;13.500;2023-12-20T03:17:34;54844.81;;;-143.77;91.73
13836;BME280;6988;52.614;13.500;2023-12-20T03:22:27;54844.81;;;-143.77;91.90
13836;BME280;6988;52.614;13.500;2023-12-20T03:27:19;54853.03;;;-143.77;91.63
13836;BME280;6988;52.614;13.500;2023-12-20T03:32:11;54904.31;;;-143.77;91.54
13836;BME280;6988;52.614;13.500;2023-12-20T03:37:03;54844.81;;;-143.77;91.41
13836;BME280;6988;52.614;13.500;2023-12-20T03:41:57;54859.19;;;-143.77;91.33
13836;BME280;6988;52.614;13.500;2023-12-20T03:46:48;54824.28;;;-143.77;91.76
13836;BME280;6988;52.614;13.500;2023-12-20T03:51:40;54832.50;;;-143.77;91.48
13836;BME280;6988;52.614;13.500;2023-12-20T03:56:33;54885.84;;;-143.77;91.16
13836;BME280;6988;52.614;13.500;2023-12-20T04:01:27;54834.56;;;-143.77;91.34
13836;BME280;6988;52.614;13.500;2023-12-20T04:06:19;54859.19;;;-143.77;91.42
13836;BME280;6988;52.614;13.500;2023-12-20T04:11:10;54818.13;;;-143.77;91.34
13836;BME280;6988;52.614;13.500;2023-12-20T04:16:03;54859.19;;;-143.77;90.95
13836;BME280;6988;52.614;13.500;2023-12-20T04:20:57;54857.13;;;-143.77;90.91
13836;BME280;6988;52.614;13.500;2023-12-20T04:25:49;54840.72;;;-143.77;91.24
13836;BME280;6988;52.614;13.500;2023-12-20T04:30:42;54859.19;;;-143.77;91.22
13836;BME280;6988;52.614;13.500;2023-12-20T04:35:34;54853.03;;;-143.77;91.30
13836;BME280;6988;52.614;13.500;2023-12-20T04:40:28;54865.34;;;-143.77;91.54
13836;BME280;6988;52.614;13.500;2023-12-20T04:45:20;54857.13;;;-143.77;91.28
13836;BME280;6988;52.614;13.500;2023-12-20T04:50:15;54924.84;;;-143.77;90.94
13836;BME280;6988;52.614;13.500;2023-12-20T04:55:09;54857.13;;;-143.77;91.05
13836;BME280;6988;52.614;13.500;2023-12-20T05:00:04;54894.06;;;-143.77;91.04
13836;BME280;6988;52.614;13.500;2023-12-20T05:04:59;54883.81;;;-143.77;91.30
13836;BME280;6988;52.614;13.500;2023-12-20T05:09:50;54887.91;;;-143.77;90.97
13836;BME280;6988;52.614;13.500;2023-12-20T05:14:42;54877.66;;;-143.77;91.36
13836;BME280;6988;52.614;13.500;2023-12-20T05:19:36;54853.03;;;-143.77;91.38
13836;BME280;6988;52.614;13.500;2023-12-20T05:24:28;54885.84;;;-143.77;90.58
13836;BME280;6988;52.614;13.500;2023-12-20T05:29:20;54894.06;;;-143.77;90.53
13836;BME280;6988;52.614;13.500;2023-12-20T05:34:15;54873.53;;;-143.77;90.57
13836;BME280;6988;52.614;13.500;2023-12-20T05:39:10;54889.97;;;-143.77;90.53
13836;BME280;6988;52.614;13.500;2023-12-20T05:44:05;54943.31;;;-143.77;90.07
13836;BME280;6988;52.614;13.500;2023-12-20T05:48:58;54879.69;;;-143.77;90.05
13836;BME280;6988;52.614;13.500;2023-12-20T05:53:50;54922.78;;;-143.77;89.24
13836;BME280;6988;52.614;13.500;2023-12-20T05:58:44;54869.44;;;-143.77;89.37
13836;BME280;6988;52.614;13.500;2023-12-20T06:03:36;54881.75;;;-143.77;89.38
13836;BME280;6988;52.614;13.500;2023-12-20T06:08:27;54898.16;;;-143.77;89.81
13836;BME280;6988;52.614;13.500;2023-12-20T06:13:19;54912.53;;;-143.77;89.35
13836;BME280;6988;52.614;13.500;2023-12-20T06:18:13;54889.97;;;-143.77;89.47
13836;BME280;6988;52.614;13.500;2023-12-20T06:23:05;54926.91;;;-143.77;89.04
13836;BME280;6988;52.614;13.500;2023-12-20T06:27:57;54898.16;;;-143.77;88.76
13836;BME280;6988;52.614;13.500;2023-12-20T06:32:49;54877.66;;;-143.77;88.09
13836;BME280;6988;52.614;13.500;2023-12-20T06:37:42;54931.00;;;-143.77;88.47
13836;BME280;6988;52.614;13.500;2023-12-20T06:42:34;54906.38;;;-143.77;88.43
13836;BME280;6988;52.614;13.500;2023-12-20T06:47:26;54902.28;;;-143.77;88.56
13836;BME280;6988;52.614;13.500;2023-12-20T06:52:18;54898.16;;;-143.77;88.44
13836;BME280;6988;52.614;13.500;2023-12-20T06:57:12;54879.69;;;-143.77;88.64
13836;BME280;6988;52.614;13.500;2023-12-20T07:02:04;54912.53;;;-143.77;88.50
13836;BME280;6988;52.614;13.500;2023-12-20T07:06:56;54912.53;;;-143.77;88.47
13836;BME280;6988;52.614;13.500;2023-12-20T07:11:50;54894.06;;;-143.77;88.60
13836;BME280;6988;52.614;13.500;2023-12-20T07:16:44;54910.47;;;-143.77;88.30
13836;BME280;6988;52.614;13.500;2023-12-20T07:21:36;54910.47;;;-143.77;88.13
13836;BME280;6988;52.614;13.500;2023-12-20T07:26:28;54935.09;;;-143.77;88.07
13836;BME280;6988;52.614;13.500;2023-12-20T07:31:19;54896.13;;;-143.77;88.01
13836;BME280;6988;52.614;13.500;2023-12-20T07:36:13;54865.34;;;-143.77;87.94
13836;BME280;6988;52.614;13.500;2023-12-20T07:41:05;54889.97;;;-143.77;87.71
13836;BME280;6988;52.614;13.500;2023-12-20T07:45:57;54879.69;;;-143.77;87.18
13836;BME280;6988;52.614;13.500;2023-12-20T07:50:49;54887.91;;;-143.77;86.84
13836;BME280;6988;52.614;13.500;2023-12-20T07:55:42;54881.75;;;-143.77;87.48
13836;BME280;6988;52.614;13.500;2023-12-20T08:00:34;54894.06;;;-143.77;86.60
13836;BME280;6988;52.614;13.500;2023-12-20T08:05:26;54889.97;;;-143.77;86.89
13836;BME280;6988;52.614;13.500;2023-12-20T08:10:18;54904.31;;;-143.77;86.75
13836;BME280;6988;52.614;13.500;2023-12-20T08:15:11;54898.16;;;-143.77;86.51
13836;BME280;6988;52.614;13.500;2023-12-20T08:20:11;54883.81;;;-143.77;85.72
13836;BME280;6988;52.614;13.500;2023-12-20T08:25:16;54928.94;;;-143.77;86.30
13836;BME280;6988;52.614;13.500;2023-12-20T08:30:15;54920.75;;;-143.77;86.11
13836;BME280;6988;52.614;13.500;2023-12-20T08:35:15;54914.59;;;-143.77;85.57
13836;BME280;6988;52.614;13.500;2023-12-20T08:40:11;54885.84;;;-143.77;85.93
13836;BME280;6988;52.614;13.500;2023-12-20T08:45:04;54869.44;;;-143.77;84.94
13836;BME280;6988;52.614;13.500;2023-12-20T08:50:00;54904.31;;;-143.77;85.53
13836;BME280;6988;52.614;13.500;2023-12-20T08:54:53;54869.44;;;-143.77;85.36
13836;BME280;6988;52.614;13.500;2023-12-20T08:59:46;54850.97;;;-143.77;84.63
13836;BME280;6988;52.614;13.500;2023-12-20T09:04:38;54883.81;;;-143.77;83.65
13836;BME280;6988;52.614;13.500;2023-12-20T09:09:31;54865.34;;;-143.77;84.00
13836;BME280;6988;52.614;13.500;2023-12-20T09:14:23;54840.72;;;-143.77;83.12
13836;BME280;6988;52.614;13.500;2023-12-20T09:19:18;54850.97;;;-143.77;82.62
13836;BME280;6988;52.614;13.500;2023-12-20T09:24:10;54857.13;;;-143.77;82.56
13836;BME280;6988;52.614;13.500;2023-12-20T09:29:03;54824.28;;;-143.77;82.16
13836;BME280;6988;52.614;13.500;2023-12-20T09:33:57;54865.34;;;-143.77;82.57
13836;BME280;6988;52.614;13.500;2023-12-20T09:38:49;54871.50;;;-143.77;82.95
13836;BME280;6988;52.614;13.500;2023-12-20T09:43:42;54902.28;;;-143.77;83.10
13836;BME280;6988;52.614;13.500;2023-12-20T09:48:37;54859.19;;;-143.77;82.93
13836;BME280;6988;52.614;13.500;2023-12-20T09:53:30;54853.03;;;-143.77;82.64
13836;BME280;6988;52.614;13.500;2023-12-20T09:58:24;54902.28;;;-143.77;81.80
13836;BME280;6988;52.614;13.500;2023-12-20T10:03:17;54836.59;;;-143.77;82.05
13836;BME280;6988;52.614;13.500;2023-12-20T10:08:15;54885.84;;;-143.77;81.56
13836;BME280;6988;52.614;13.500;2023-12-20T10:13:09;54855.06;;;-143.77;81.50
13836;BME280;6988;52.614;13.500;2023-12-20T10:18:03;54914.59;;;-143.77;81.87
13836;BME280;6988;52.614;13.500;2023-12-20T10:22:56;54857.13;;;-143.77;81.88
13836;BME280;6988;52.614;13.500;2023-12-20T10:27:50;54838.66;;;-143.77;82.28
13836;BME280;6988;52.614;13.500;2023-12-20T10:32:42;54863.28;;;-143.77;81.32
13836;BME280;6988;52.614;13.500;2023-12-20T10:37:35;54850.97;;;-143.77;80.96
13836;BME280;6988;52.614;13.500;2023-12-20T10:42:29;54894.06;;;-143.77;81.31
13836;BME280;6988;52.614;13.500;2023-12-20T10:47:25;54842.75;;;-143.77;81.75
13836;BME280;6988;52.614;13.500;2023-12-20T10:52:17;54853.03;;;-143.77;82.62
13836;BME280;6988;52.614;13.500;2023-12-20T10:57:11;54857.13;;;-143.77;81.65
13836;BME280;6988;52.614;13.500;2023-12-20T11:02:04;54857.13;;;-143.77;81.22
13836;BME280;6988;52.614;13.500;2023-12-20T11:07:17;54855.06;;;-143.77;80.39
13836;BME280;6988;52.614;13.500;2023-12-20T11:12:20;54877.66;;;-143.77;80.08
13836;BME280;6988;52.614;13.500;2023-12-20T11:17:16;54863.28;;;-143.77;79.73
13836;BME280;6988;52.614;13.500;2023-12-20T11:22:10;54883.81;;;-143.77;79.31
13836;BME280;6988;52.614;13.500;2023-12-20T11:27:03;54844.81;;;-143.77;78.79
13836;BME280;6988;52.614;13.500;2023-12-20T11:31:55;54832.50;;;-143.77;80.06
13836;BME280;6988;52.614;13.500;2023-12-20T11:36:46;54830.44;;;-143.77;80.70
13836;BME280;6988;52.614;13.500;2023-12-20T11:41:40;54853.03;;;-143.77;80.72
13836;BME280;6988;52.614;13.500;2023-12-20T11:46:32;54840.72;;;-143.77;81.43
13836;BME280;6988;52.614;13.500;2023-12-20T11:51:24;54857.13;;;-143.77;81.42
13836;BME280;6988;52.614;13.500;2023-12-20T11:56:16;54840.72;;;-143.77;81.38
13836;BME280;6988;52.614;13.500;2023-12-20T12:01:09;54791.47;;;-143.77;81.82
13836;BME280;6988;52.614;13.500;2023-12-20T12:06:02;54846.88;;;-143.77;81.51
13836;BME280;6988;52.614;13.500;2023-12-20T12:10:55;54853.03;;;-143.77;80.67
13836;BME280;6988;52.614;13.500;2023-12-20T12:15:48;54824.28;;;-143.77;80.62
13836;BME280;6988;52.614;13.500;2023-12-20T12:20:42;54869.44;;;-143.77;80.35
13836;BME280;6988;52.614;13.500;2023-12-20T12:25:36;54857.13;;;-143.77;80.84
13836;BME280;6988;52.614;13.500;2023-12-20T12:30:28;54883.81;;;-143.77;81.18
13836;BME280;6988;52.614;13.500;2023-12-20T12:35:21;54859.19;;;-143.77;82.58
13836;BME280;6988;52.614;13.500;2023-12-20T12:40:16;54865.34;;;-143.77;82.92
13836;BME280;6988;52.614;13.500;2023-12-20T12:45:11;54869.44;;;-143.77;82.31
13836;BME280;6988;52.614;13.500;2023-12-20T12:50:04;54900.22;;;-143.77;83.17
13836;BME280;6988;52.614;13.500;2023-12-20T12:54:56;54871.50;;;-143.77;83.12
13836;BME280;6988;52.614;13.500;2023-12-20T12:59:49;54879.69;;;-143.77;83.78
13836;BME280;6988;52.614;13.500;2023-12-20T13:04:42;54857.13;;;-143.77;83.58
13836;BME280;6988;52.614;13.500;2023-12-20T13:09:34;54869.44;;;-143.77;84.39
13836;BME280;6988;52.614;13.500;2023-12-20T13:14:25;54871.50;;;-143.77;84.68
13836;BME280;6988;52.614;13.500;2023-12-20T13:19:19;54863.28;;;-143.77;84.17
13836;BME280;6988;52.614;13.500;2023-12-20T13:24:12;54883.81;;;-143.77;85.49
13836;BME280;6988;52.614;13.500;2023-12-20T13:29:04;54912.53;;;-143.77;83.58
13836;BME280;6988;52.614;13.500;2023-12-20T13:33:57;54875.59;;;-143.77;84.74
13836;BME280;6988;52.614;13.500;2023-12-20T13:38:50;54892.00;;;-143.77;86.60
13836;BME280;6988;52.614;13.500;2023-12-20T13:43:42;54914.59;;;-143.77;87.06
13836;BME280;6988;52.614;13.500;2023-12-20T13:48:34;54857.13;;;-143.77;87.51
13836;BME280;6988;52.614;13.500;2023-12-20T13:53:26;54869.44;;;-143.77;86.39
13836;BME280;6988;52.614;13.500;2023-12-20T13:58:21;54943.31;;;-143.77;85.20
13836;BME280;6988;52.614;13.500;2023-12-20T14:03:13;54865.34;;;-143.77;84.54
13836;BME280;6988;52.614;13.500;2023-12-20T14:08:06;54914.59;;;-143.77;84.32
13836;BME280;6988;52.614;13.500;2023-12-20T14:12:58;54914.59;;;-143.77;83.94
13836;BME280;6988;52.614;13.500;2023-12-20T14:17:54;54877.66;;;-143.77;83.84
13836;BME280;6988;52.614;13.500;2023-12-20T14:22:46;54898.16;;;-143.77;83.05
13836;BME280;6988;52.614;13.500;2023-12-20T14:27:38;54924.84;;;-143.77;81.59
13836;BME280;6988;52.614;13.500;2023-12-20T14:32:31;54910.47;;;-143.77;81.86
13836;BME280;6988;52.614;13.500;2023-12-20T14:37:24;54898.16;;;-143.77;81.75
13836;BME280;6988;52.614;13.500;2023-12-20T14:42:17;54922.78;;;-143.77;80.69
13836;BME280;6988;52.614;13.500;2023-12-20T14:47:10;54894.06;;;-143.77;80.51
13836;BME280;6988;52.614;13.500;2023-12-20T14:52:02;54894.06;;;-143.77;80.14
13836;BME280;6988;52.614;13.500;2023-12-20T14:56:59;54877.66;;;-143.77;80.04
13836;BME280;6988;52.614;13.500;2023-12-20T15:01:51;54881.75;;;-143.77;80.80
13836;BME280;6988;52.614;13.500;2023-12-20T15:06:43;54924.84;;;-143.77;82.23
13836;BME280;6988;52.614;13.500;2023-12-20T15:11:37;54896.13;;;-143.77;81.96
13836;BME280;6988;52.614;13.500;2023-12-20T15:16:51;54914.59;;;-143.77;82.51
13836;BME280;6988;52.614;13.500;2023-12-20T15:22:22;54931.00;;;-143.77;83.78
13836;BME280;6988;52.614;13.500;2023-12-20T15:27:14;54928.94;;;-143.77;84.73
13836;BME280;6988;52.614;13.500;2023-12-20T15:38:36;54928.94;;;-143.77;83.96
13836;BME280;6988;52.614;13.500;2023-12-20T15:43:43;54896.13;;;-143.77;83.63
13836;BME280;6988;52.614;13.500;2023-12-20T15:48:37;54924.84;;;-143.77;83.37
13836;BME280;6988;52.614;13.500;2023-12-20T15:53:35;54900.22;;;-143.77;83.02
13836;BME280;6988;52.614;13.500;2023-12-20T15:58:29;54900.22;;;-143.77;83.25
13836;BME280;6988;52.614;13.500;2023-12-20T16:03:21;54924.84;;;-143.77;83.43
13836;BME280;6988;52.614;13.500;2023-12-20T16:08:13;54910.47;;;-143.77;83.48
13836;BME280;6988;52.614;13.500;2023-12-20T16:13:06;54931.00;;;-143.77;83.34
13836;BME280;6988;52.614;13.500;2023-12-20T16:17:58;54933.06;;;-143.77;83.34
13836;BME280;6988;52.614;13.500;2023-12-20T16:22:50;54943.31;;;-143.77;83.21
13836;BME280;6988;52.614;13.500;2023-12-20T16:27:42;54916.63;;;-143.77;83.59
13836;BME280;6988;52.614;13.500;2023-12-20T16:32:36;54931.00;;;-143.77;83.34
13836;BME280;6988;52.614;13.500;2023-12-20T16:37:28;54916.63;;;-143.77;82.18
13836;BME280;6988;52.614;13.500;2023-12-20T16:42:19;54926.91;;;-143.77;82.16
13836;BME280;6988;52.614;13.500;2023-12-20T16:47:12;54945.38;;;-143.77;82.12
13836;BME280;6988;52.614;13.500;2023-12-20T16:52:08;54947.41;;;-143.77;82.19
13836;BME280;6988;52.614;13.500;2023-12-20T16:57:01;54939.22;;;-143.77;82.31
13836;BME280;6988;52.614;13.500;2023-12-20T17:01:53;54939.22;;;-143.77;82.36
13836;BME280;6988;52.614;13.500;2023-12-20T17:06:45;54943.31;;;-143.77;82.62
13836;BME280;6988;52.614;13.500;2023-12-20T17:11:41;54955.63;;;-143.77;83.44
13836;BME280;6988;52.614;13.500;2023-12-20T17:16:35;54939.22;;;-143.77;82.69
13836;BME280;6988;52.614;13.500;2023-12-20T17:21:27;54959.72;;;-143.77;82.41
13836;BME280;6988;52.614;13.500;2023-12-20T17:26:19;54959.72;;;-143.77;82.93
13836;BME280;6988;52.614;13.500;2023-12-20T17:31:32;54970.00;;;-143.77;82.71
13836;BME280;6988;52.614;13.500;2023-12-20T17:36:46;54959.72;;;-143.77;82.66
13836;BME280;6988;52.614;13.500;2023-12-20T17:41:40;54902.28;;;-143.77;82.89
13836;BME280;6988;52.614;13.500;2023-12-20T17:46:34;54951.53;;;-143.77;82.97
13836;BME280;6988;52.614;13.500;2023-12-20T17:51:26;54963.84;;;-143.77;83.01
13836;BME280;6988;52.614;13.500;2023-12-20T17:56:31;54963.84;;;-143.77;83.62
13836;BME280;6988;52.614;13.500;2023-12-20T18:01:58;54922.78;;;-143.77;84.09
13836;BME280;6988;52.614;13.500;2023-12-20T18:07:19;54972.03;;;-143.77;83.92
13836;BME280;6988;52.614;13.500;2023-12-20T18:12:36;54974.09;;;-143.77;84.73
13836;BME280;6988;52.614;13.500;2023-12-20T18:22:32;54949.47;;;-143.77;84.02
13836;BME280;6988;52.614;13.500;2023-12-20T18:27:25;54898.16;;;-143.77;82.82
13836;BME280;6988;52.614;13.500;2023-12-20T18:37:24;54951.53;;;-143.77;82.78
13836;BME280;6988;52.614;13.500;2023-12-20T18:42:18;54885.84;;;-143.77;82.74
13836;BME280;6988;52.614;13.500;2023-12-20T18:47:11;54906.38;;;-143.77;82.65
13836;BME280;6988;52.614;13.500;2023-12-20T18:57:13;54959.72;;;-143.77;82.38
13836;BME280;6988;52.614;13.500;2023-12-20T19:02:07;54906.38;;;-143.77;82.13
13836;BME280;6988;52.614;13.500;2023-12-20T19:07:02;54906.38;;;-143.77;81.35
13836;BME280;6988;52.614;13.500;2023-12-20T19:11:55;54914.59;;;-143.77;81.19
13836;BME280;6988;52.614;13.500;2023-12-20T19:16:48;54902.28;;;-143.77;81.58
13836;BME280;6988;52.614;13.500;2023-12-20T19:26:50;54912.53;;;-143.77;82.83
13836;BME280;6988;52.614;13.500;2023-12-20T21:14:13;54988.47;;;-143.77;81.79
13836;BME280;6988;52.614;13.500;2023-12-20T21:39:36;54926.91;;;-143.77;83.02
13836;BME280;6988;52.614;13.500;2023-12-20T23:21:34;54970.00;;;-143.77;87.45
13836;BME280;6988;52.614;13.500;2023-12-20T23:52:05;54974.09;;;-143.77;88.87
